sensor_id;sensor_type;location;lat;lon;timestamp;pressure;altitude;pressure_sealevel;temperature
27826;BMP280;15077;49.704;9.908;2023-10-31T00:02:08;96403.47;;;17.71
27826;BMP280;15077;49.704;9.908;2023-10-31T00:04:34;96408.59;;;17.71
27826;BMP280;15077;49.704;9.908;2023-10-31T00:07:00;96397.69;;;17.69
27826;BMP280;15077;49.704;9.908;2023-10-31T00:09:28;96404.59;;;17.69
27826;BMP280;15077;49.704;9.908;2023-10-31T00:11:54;96396.38;;;17.65
27826;BMP280;15077;49.704;9.908;2023-10-31T00:14:20;96402.59;;;17.63
27826;BMP280;15077;49.704;9.908;2023-10-31T00:16:50;96409.75;;;17.59
27826;BMP280;15077;49.704;9.908;2023-10-31T00:19:17;96410.88;;;17.57
27826;BMP280;15077;49.704;9.908;2023-10-31T00:21:44;96401.19;;;17.51
27826;BMP280;15077;49.704;9.908;2023-10-31T00:24:11;96411.69;;;17.48
27826;BMP280;15077;49.704;9.908;2023-10-31T00:26:38;96413.75;;;17.45
27826;BMP280;15077;49.704;9.908;2023-10-31T00:29:04;96424.94;;;17.44
27826;BMP280;15077;49.704;9.908;2023-10-31T00:31:35;96417.69;;;17.39
27826;BMP280;15077;49.704;9.908;2023-10-31T00:34:01;96422.16;;;17.37
27826;BMP280;15077;49.704;9.908;2023-10-31T00:36:27;96427.13;;;17.39
27826;BMP280;15077;49.704;9.908;2023-10-31T00:38:53;96423.91;;;17.37
27826;BMP280;15077;49.704;9.908;2023-10-31T00:41:19;96416.38;;;17.35
27826;BMP280;15077;49.704;9.908;2023-10-31T00:43:45;96423.50;;;17.32
27826;BMP280;15077;49.704;9.908;2023-10-31T00:46:11;96436.47;;;17.30
27826;BMP280;15077;49.704;9.908;2023-10-31T00:48:37;96430.69;;;17.28
27826;BMP280;15077;49.704;9.908;2023-10-31T00:51:04;96434.19;;;17.27
27826;BMP280;15077;49.704;9.908;2023-10-31T00:53:29;96437.56;;;17.28
27826;BMP280;15077;49.704;9.908;2023-10-31T00:55:55;96427.31;;;17.28
27826;BMP280;15077;49.704;9.908;2023-10-31T00:58:21;96426.22;;;17.30
27826;BMP280;15077;49.704;9.908;2023-10-31T01:00:46;96427.03;;;17.31
27826;BMP280;15077;49.704;9.908;2023-10-31T01:03:12;96439.41;;;17.35
27826;BMP280;15077;49.704;9.908;2023-10-31T01:05:37;96436.72;;;17.37
27826;BMP280;15077;49.704;9.908;2023-10-31T01:08:03;96434.16;;;17.37
27826;BMP280;15077;49.704;9.908;2023-10-31T01:10:29;96433.19;;;17.38
27826;BMP280;15077;49.704;9.908;2023-10-31T01:12:54;96440.59;;;17.41
27826;BMP280;15077;49.704;9.908;2023-10-31T01:15:20;96451.78;;;17.40
27826;BMP280;15077;49.704;9.908;2023-10-31T01:17:46;96452.72;;;17.39
27826;BMP280;15077;49.704;9.908;2023-10-31T01:20:11;96454.78;;;17.35
27826;BMP280;15077;49.704;9.908;2023-10-31T01:22:37;96459.06;;;17.35
27826;BMP280;15077;49.704;9.908;2023-10-31T01:25:03;96448.84;;;17.35
27826;BMP280;15077;49.704;9.908;2023-10-31T01:27:29;96459.91;;;17.35
27826;BMP280;15077;49.704;9.908;2023-10-31T01:29:54;96458.13;;;17.36
27826;BMP280;15077;49.704;9.908;2023-10-31T01:32:20;96461.34;;;17.38
27826;BMP280;15077;49.704;9.908;2023-10-31T01:34:45;96462.03;;;17.40
27826;BMP280;15077;49.704;9.908;2023-10-31T01:37:11;96465.25;;;17.42
27826;BMP280;15077;49.704;9.908;2023-10-31T01:39:38;96467.81;;;17.42
27826;BMP280;15077;49.704;9.908;2023-10-31T01:42:03;96460.78;;;17.44
27826;BMP280;15077;49.704;9.908;2023-10-31T01:44:29;96464.31;;;17.43
27826;BMP280;15077;49.704;9.908;2023-10-31T01:46:55;96452.44;;;17.42
27826;BMP280;15077;49.704;9.908;2023-10-31T01:49:21;96460.13;;;17.42
27826;BMP280;15077;49.704;9.908;2023-10-31T01:51:47;96455.94;;;17.41
27826;BMP280;15077;49.704;9.908;2023-10-31T01:54:13;96456.91;;;17.40
27826;BMP280;15077;49.704;9.908;2023-10-31T01:56:40;96454.66;;;17.37
27826;BMP280;15077;49.704;9.908;2023-10-31T01:59:06;96452.50;;;17.32
27826;BMP280;15077;49.704;9.908;2023-10-31T02:01:33;96457.09;;;17.29
27826;BMP280;15077;49.704;9.908;2023-10-31T02:04:00;96461.56;;;17.27
27826;BMP280;15077;49.704;9.908;2023-10-31T02:06:28;96467.88;;;17.23
27826;BMP280;15077;49.704;9.908;2023-10-31T02:08:55;96465.84;;;17.17
27826;BMP280;15077;49.704;9.908;2023-10-31T02:11:21;96479.75;;;17.14
27826;BMP280;15077;49.704;9.908;2023-10-31T02:13:47;96486.38;;;17.07
27826;BMP280;15077;49.704;9.908;2023-10-31T02:16:12;96490.28;;;17.02
27826;BMP280;15077;49.704;9.908;2023-10-31T02:18:38;96486.66;;;16.95
27826;BMP280;15077;49.704;9.908;2023-10-31T02:21:04;96495.84;;;16.88
27826;BMP280;15077;49.704;9.908;2023-10-31T02:23:29;96497.34;;;16.81
27826;BMP280;15077;49.704;9.908;2023-10-31T02:25:55;96506.22;;;16.77
27826;BMP280;15077;49.704;9.908;2023-10-31T02:28:20;96510.97;;;16.72
27826;BMP280;15077;49.704;9.908;2023-10-31T02:30:46;96507.06;;;16.68
27826;BMP280;15077;49.704;9.908;2023-10-31T02:33:12;96514.34;;;16.63
27826;BMP280;15077;49.704;9.908;2023-10-31T02:35:37;96521.47;;;16.60
27826;BMP280;15077;49.704;9.908;2023-10-31T02:38:04;96527.66;;;16.57
27826;BMP280;15077;49.704;9.908;2023-10-31T02:40:30;96522.13;;;16.52
27826;BMP280;15077;49.704;9.908;2023-10-31T02:42:55;96526.06;;;16.47
27826;BMP280;15077;49.704;9.908;2023-10-31T02:45:21;96535.88;;;16.42
27826;BMP280;15077;49.704;9.908;2023-10-31T02:47:46;96545.56;;;16.39
27826;BMP280;15077;49.704;9.908;2023-10-31T02:50:12;96553.63;;;16.34
27826;BMP280;15077;49.704;9.908;2023-10-31T02:52:38;96556.72;;;16.28
27826;BMP280;15077;49.704;9.908;2023-10-31T02:55:04;96553.63;;;16.25
27826;BMP280;15077;49.704;9.908;2023-10-31T02:57:29;96550.63;;;16.20
27826;BMP280;15077;49.704;9.908;2023-10-31T02:59:55;96550.88;;;16.17
27826;BMP280;15077;49.704;9.908;2023-10-31T03:02:20;96554.53;;;16.14
27826;BMP280;15077;49.704;9.908;2023-10-31T03:04:47;96564.19;;;16.11
27826;BMP280;15077;49.704;9.908;2023-10-31T03:07:13;96575.59;;;16.07
27826;BMP280;15077;49.704;9.908;2023-10-31T03:09:38;96580.03;;;16.05
27826;BMP280;15077;49.704;9.908;2023-10-31T03:12:04;96578.81;;;16.00
27826;BMP280;15077;49.704;9.908;2023-10-31T03:14:30;96577.47;;;15.96
27826;BMP280;15077;49.704;9.908;2023-10-31T03:16:56;96568.31;;;15.93
27826;BMP280;15077;49.704;9.908;2023-10-31T03:19:21;96577.16;;;15.89
27826;BMP280;15077;49.704;9.908;2023-10-31T03:21:47;96574.75;;;15.88
27826;BMP280;15077;49.704;9.908;2023-10-31T03:24:12;96587.78;;;15.85
27826;BMP280;15077;49.704;9.908;2023-10-31T03:26:38;96584.44;;;15.84
27826;BMP280;15077;49.704;9.908;2023-10-31T03:29:04;96587.09;;;15.83
27826;BMP280;15077;49.704;9.908;2023-10-31T03:31:29;96586.31;;;15.82
27826;BMP280;15077;49.704;9.908;2023-10-31T03:33:55;96583.06;;;15.80
27826;BMP280;15077;49.704;9.908;2023-10-31T03:36:21;96580.75;;;15.77
27826;BMP280;15077;49.704;9.908;2023-10-31T03:38:46;96587.09;;;15.73
27826;BMP280;15077;49.704;9.908;2023-10-31T03:41:12;96587.34;;;15.70
27826;BMP280;15077;49.704;9.908;2023-10-31T03:43:38;96590.16;;;15.67
27826;BMP280;15077;49.704;9.908;2023-10-31T03:46:04;96592.94;;;15.64
27826;BMP280;15077;49.704;9.908;2023-10-31T03:48:30;96601.56;;;15.63
27826;BMP280;15077;49.704;9.908;2023-10-31T03:50:55;96604.38;;;15.60
27826;BMP280;15077;49.704;9.908;2023-10-31T03:53:21;96608.91;;;15.57
27826;BMP280;15077;49.704;9.908;2023-10-31T03:55:47;96606.59;;;15.54
27826;BMP280;15077;49.704;9.908;2023-10-31T03:58:12;96614.25;;;15.54
27826;BMP280;15077;49.704;9.908;2023-10-31T04:00:41;96617.91;;;15.52
27826;BMP280;15077;49.704;9.908;2023-10-31T04:03:08;96618.81;;;15.51
27826;BMP280;15077;49.704;9.908;2023-10-31T04:05:34;96627.41;;;15.50
27826;BMP280;15077;49.704;9.908;2023-10-31T04:07:59;96629.97;;;15.50
27826;BMP280;15077;49.704;9.908;2023-10-31T04:10:25;96621.63;;;15.48
27826;BMP280;15077;49.704;9.908;2023-10-31T04:12:51;96610.75;;;15.46
27826;BMP280;15077;49.704;9.908;2023-10-31T04:15:17;96609.25;;;15.43
27826;BMP280;15077;49.704;9.908;2023-10-31T04:17:43;96606.81;;;15.42
27826;BMP280;15077;49.704;9.908;2023-10-31T04:20:09;96601.72;;;15.42
27826;BMP280;15077;49.704;9.908;2023-10-31T04:22:34;96617.16;;;15.40
27826;BMP280;15077;49.704;9.908;2023-10-31T04:25:00;96615.53;;;15.39
27826;BMP280;15077;49.704;9.908;2023-10-31T04:27:25;96618.91;;;15.40
27826;BMP280;15077;49.704;9.908;2023-10-31T04:29:51;96617.16;;;15.40
27826;BMP280;15077;49.704;9.908;2023-10-31T04:32:16;96619.84;;;15.39
27826;BMP280;15077;49.704;9.908;2023-10-31T04:34:43;96633.38;;;15.39
27826;BMP280;15077;49.704;9.908;2023-10-31T04:37:08;96631.94;;;15.37
27826;BMP280;15077;49.704;9.908;2023-10-31T04:39:34;96634.47;;;15.37
27826;BMP280;15077;49.704;9.908;2023-10-31T04:42:00;96634.59;;;15.35
27826;BMP280;15077;49.704;9.908;2023-10-31T04:44:26;96627.75;;;15.36
27826;BMP280;15077;49.704;9.908;2023-10-31T04:46:51;96632.06;;;15.35
27826;BMP280;15077;49.704;9.908;2023-10-31T04:49:17;96636.19;;;15.36
27826;BMP280;15077;49.704;9.908;2023-10-31T04:51:42;96637.16;;;15.35
27826;BMP280;15077;49.704;9.908;2023-10-31T04:54:08;96635.41;;;15.36
27826;BMP280;15077;49.704;9.908;2023-10-31T04:56:34;96631.09;;;15.36
27826;BMP280;15077;49.704;9.908;2023-10-31T04:59:00;96636.31;;;15.35
27826;BMP280;15077;49.704;9.908;2023-10-31T05:01:25;96644.94;;;15.34
27826;BMP280;15077;49.704;9.908;2023-10-31T05:03:51;96642.50;;;15.32
27826;BMP280;15077;49.704;9.908;2023-10-31T05:06:22;96641.69;;;15.32
27826;BMP280;15077;49.704;9.908;2023-10-31T05:08:48;96644.22;;;15.32
27826;BMP280;15077;49.704;9.908;2023-10-31T05:11:16;96650.97;;;15.33
27826;BMP280;15077;49.704;9.908;2023-10-31T05:13:42;96656.06;;;15.33
27826;BMP280;15077;49.704;9.908;2023-10-31T05:16:08;96654.31;;;15.33
27826;BMP280;15077;49.704;9.908;2023-10-31T05:18:36;96657.56;;;15.35
27826;BMP280;15077;49.704;9.908;2023-10-31T05:21:02;96656.63;;;15.36
27826;BMP280;15077;49.704;9.908;2023-10-31T05:23:27;96659.03;;;15.38
27826;BMP280;15077;49.704;9.908;2023-10-31T05:25:53;96661.59;;;15.38
27826;BMP280;15077;49.704;9.908;2023-10-31T05:28:18;96670.09;;;15.38
27826;BMP280;15077;49.704;9.908;2023-10-31T05:30:44;96660.78;;;15.37
27826;BMP280;15077;49.704;9.908;2023-10-31T05:33:09;96664.03;;;15.39
27826;BMP280;15077;49.704;9.908;2023-10-31T05:35:35;96651.38;;;15.38
27826;BMP280;15077;49.704;9.908;2023-10-31T05:38:01;96653.94;;;15.38
27826;BMP280;15077;49.704;9.908;2023-10-31T05:40:26;96661.72;;;15.36
27826;BMP280;15077;49.704;9.908;2023-10-31T05:42:53;96660.91;;;15.36
27826;BMP280;15077;49.704;9.908;2023-10-31T05:45:18;96654.31;;;15.33
27826;BMP280;15077;49.704;9.908;2023-10-31T05:47:44;96657.00;;;15.32
27826;BMP280;15077;49.704;9.908;2023-10-31T05:50:10;96673.13;;;15.32
27826;BMP280;15077;49.704;9.908;2023-10-31T05:52:35;96672.31;;;15.32
27826;BMP280;15077;49.704;9.908;2023-10-31T05:55:02;96673.25;;;15.31
27826;BMP280;15077;49.704;9.908;2023-10-31T05:57:27;96680.09;;;15.30
27826;BMP280;15077;49.704;9.908;2023-10-31T05:59:53;96683.72;;;15.28
27826;BMP280;15077;49.704;9.908;2023-10-31T06:02:19;96688.13;;;15.26
27826;BMP280;15077;49.704;9.908;2023-10-31T06:04:44;96681.28;;;15.26
27826;BMP280;15077;49.704;9.908;2023-10-31T06:07:10;96678.03;;;15.24
27826;BMP280;15077;49.704;9.908;2023-10-31T06:09:36;96674.00;;;15.22
27826;BMP280;15077;49.704;9.908;2023-10-31T06:12:02;96684.34;;;15.20
27826;BMP280;15077;49.704;9.908;2023-10-31T06:14:28;96692.22;;;15.17
27826;BMP280;15077;49.704;9.908;2023-10-31T06:16:53;96704.13;;;15.17
27826;BMP280;15077;49.704;9.908;2023-10-31T06:19:19;96704.97;;;15.17
27826;BMP280;15077;49.704;9.908;2023-10-31T06:21:46;96708.44;;;15.16
27826;BMP280;15077;49.704;9.908;2023-10-31T06:24:12;96712.72;;;15.16
27826;BMP280;15077;49.704;9.908;2023-10-31T06:26:37;96717.81;;;15.16
27826;BMP280;15077;49.704;9.908;2023-10-31T06:29:04;96722.91;;;15.16
27826;BMP280;15077;49.704;9.908;2023-10-31T06:31:29;96724.00;;;15.13
27826;BMP280;15077;49.704;9.908;2023-10-31T06:33:55;96736.88;;;15.12
27826;BMP280;15077;49.704;9.908;2023-10-31T06:36:20;96735.25;;;15.11
27826;BMP280;15077;49.704;9.908;2023-10-31T06:38:46;96735.50;;;15.08
27826;BMP280;15077;49.704;9.908;2023-10-31T06:41:12;96731.91;;;15.10
27826;BMP280;15077;49.704;9.908;2023-10-31T06:43:37;96741.28;;;15.10
27826;BMP280;15077;49.704;9.908;2023-10-31T06:46:03;96737.13;;;15.09
27826;BMP280;15077;49.704;9.908;2023-10-31T06:48:30;96744.78;;;15.09
27826;BMP280;15077;49.704;9.908;2023-10-31T06:50:56;96734.69;;;15.07
27826;BMP280;15077;49.704;9.908;2023-10-31T06:53:21;96738.03;;;15.08
27826;BMP280;15077;49.704;9.908;2023-10-31T06:55:47;96742.22;;;15.09
27826;BMP280;15077;49.704;9.908;2023-10-31T06:58:14;96745.69;;;15.08
27826;BMP280;15077;49.704;9.908;2023-10-31T07:00:39;96758.34;;;15.09
27826;BMP280;15077;49.704;9.908;2023-10-31T07:03:05;96775.50;;;15.07
27826;BMP280;15077;49.704;9.908;2023-10-31T07:05:31;96767.97;;;15.06
27826;BMP280;15077;49.704;9.908;2023-10-31T07:07:57;96777.47;;;15.04
27826;BMP280;15077;49.704;9.908;2023-10-31T07:10:23;96777.59;;;15.02
27826;BMP280;15077;49.704;9.908;2023-10-31T07:12:48;96780.13;;;15.02
27826;BMP280;15077;49.704;9.908;2023-10-31T07:15:14;96785.25;;;15.02
27826;BMP280;15077;49.704;9.908;2023-10-31T07:17:40;96800.44;;;15.04
27826;BMP280;15077;49.704;9.908;2023-10-31T07:20:06;96805.53;;;15.04
27826;BMP280;15077;49.704;9.908;2023-10-31T07:22:32;96800.13;;;14.98
27826;BMP280;15077;49.704;9.908;2023-10-31T07:24:59;96803.94;;;14.92
27826;BMP280;15077;49.704;9.908;2023-10-31T07:27:28;96805.13;;;14.88
27826;BMP280;15077;49.704;9.908;2023-10-31T07:29:53;96813.13;;;14.84
27826;BMP280;15077;49.704;9.908;2023-10-31T07:32:19;96809.88;;;14.82
27826;BMP280;15077;49.704;9.908;2023-10-31T07:34:45;96812.41;;;14.82
27826;BMP280;15077;49.704;9.908;2023-10-31T07:37:10;96819.28;;;14.81
27826;BMP280;15077;49.704;9.908;2023-10-31T07:39:36;96826.13;;;14.81
27826;BMP280;15077;49.704;9.908;2023-10-31T07:42:02;96827.84;;;14.80
27826;BMP280;15077;49.704;9.908;2023-10-31T07:44:27;96816.84;;;14.80
27826;BMP280;15077;49.704;9.908;2023-10-31T07:46:53;96821.94;;;14.80
27826;BMP280;15077;49.704;9.908;2023-10-31T07:49:19;96818.47;;;14.81
27826;BMP280;15077;49.704;9.908;2023-10-31T07:51:45;96832.94;;;14.80
27826;BMP280;15077;49.704;9.908;2023-10-31T07:54:14;96835.50;;;14.80
27826;BMP280;15077;49.704;9.908;2023-10-31T07:56:39;96836.22;;;14.82
27826;BMP280;15077;49.704;9.908;2023-10-31T07:59:06;96833.53;;;14.84
27826;BMP280;15077;49.704;9.908;2023-10-31T08:01:33;96847.09;;;14.84
27826;BMP280;15077;49.704;9.908;2023-10-31T08:03:59;96837.81;;;14.83
27826;BMP280;15077;49.704;9.908;2023-10-31T08:06:25;96850.56;;;14.83
27826;BMP280;15077;49.704;9.908;2023-10-31T08:08:50;96853.94;;;14.84
27826;BMP280;15077;49.704;9.908;2023-10-31T08:11:16;96858.09;;;14.85
27826;BMP280;15077;49.704;9.908;2023-10-31T08:13:42;96859.72;;;14.86
27826;BMP280;15077;49.704;9.908;2023-10-31T08:16:08;96858.81;;;14.87
27826;BMP280;15077;49.704;9.908;2023-10-31T08:18:34;96859.59;;;14.87
27826;BMP280;15077;49.704;9.908;2023-10-31T08:21:00;96864.72;;;14.87
27826;BMP280;15077;49.704;9.908;2023-10-31T08:23:26;96862.03;;;14.89
27826;BMP280;15077;49.704;9.908;2023-10-31T08:25:52;96880.59;;;14.91
27826;BMP280;15077;49.704;9.908;2023-10-31T08:28:18;96879.56;;;14.93
27826;BMP280;15077;49.704;9.908;2023-10-31T08:30:43;96887.09;;;14.95
27826;BMP280;15077;49.704;9.908;2023-10-31T08:33:09;96889.53;;;14.96
27826;BMP280;15077;49.704;9.908;2023-10-31T08:35:35;96884.19;;;14.99
27826;BMP280;15077;49.704;9.908;2023-10-31T08:38:00;96896.81;;;15.01
27826;BMP280;15077;49.704;9.908;2023-10-31T08:40:26;96893.34;;;15.02
27826;BMP280;15077;49.704;9.908;2023-10-31T08:42:52;96900.06;;;15.02
27826;BMP280;15077;49.704;9.908;2023-10-31T08:45:17;96903.44;;;15.03
27826;BMP280;15077;49.704;9.908;2023-10-31T08:47:43;96910.84;;;15.06
27826;BMP280;15077;49.704;9.908;2023-10-31T08:50:09;96910.84;;;15.06
27826;BMP280;15077;49.704;9.908;2023-10-31T08:52:36;96906.56;;;15.06
27826;BMP280;15077;49.704;9.908;2023-10-31T08:55:02;96906.31;;;15.09
27826;BMP280;15077;49.704;9.908;2023-10-31T08:57:29;96906.88;;;15.13
27826;BMP280;15077;49.704;9.908;2023-10-31T08:59:54;96909.13;;;15.17
27826;BMP280;15077;49.704;9.908;2023-10-31T09:02:20;96903.81;;;15.20
27826;BMP280;15077;49.704;9.908;2023-10-31T09:04:45;96911.22;;;15.23
27826;BMP280;15077;49.704;9.908;2023-10-31T09:07:11;96910.16;;;15.26
27826;BMP280;15077;49.704;9.908;2023-10-31T09:09:37;96911.44;;;15.31
27826;BMP280;15077;49.704;9.908;2023-10-31T09:12:03;96914.44;;;15.36
27826;BMP280;15077;49.704;9.908;2023-10-31T09:14:28;96911.75;;;15.38
27826;BMP280;15077;49.704;9.908;2023-10-31T09:16:54;96915.81;;;15.40
27826;BMP280;15077;49.704;9.908;2023-10-31T09:19:19;96918.25;;;15.42
27826;BMP280;15077;49.704;9.908;2023-10-31T09:21:45;96912.25;;;15.43
27826;BMP280;15077;49.704;9.908;2023-10-31T09:24:11;96917.22;;;15.44
27826;BMP280;15077;49.704;9.908;2023-10-31T09:26:36;96914.53;;;15.46
27826;BMP280;15077;49.704;9.908;2023-10-31T09:29:03;96924.53;;;15.49
27826;BMP280;15077;49.704;9.908;2023-10-31T09:31:29;96927.75;;;15.51
27826;BMP280;15077;49.704;9.908;2023-10-31T09:33:54;96922.41;;;15.53
27826;BMP280;15077;49.704;9.908;2023-10-31T09:36:20;96939.13;;;15.57
27826;BMP280;15077;49.704;9.908;2023-10-31T09:38:46;96921.00;;;15.60
27826;BMP280;15077;49.704;9.908;2023-10-31T09:41:14;96934.22;;;15.65
27826;BMP280;15077;49.704;9.908;2023-10-31T09:43:40;96941.63;;;15.68
27826;BMP280;15077;49.704;9.908;2023-10-31T09:46:06;96939.78;;;15.70
27826;BMP280;15077;49.704;9.908;2023-10-31T09:48:32;96941.41;;;15.71
27826;BMP280;15077;49.704;9.908;2023-10-31T09:50:59;96946.97;;;15.76
27826;BMP280;15077;49.704;9.908;2023-10-31T09:53:25;96939.19;;;15.78
27826;BMP280;15077;49.704;9.908;2023-10-31T09:55:52;96949.28;;;15.79
27826;BMP280;15077;49.704;9.908;2023-10-31T09:58:19;96943.22;;;15.80
27826;BMP280;15077;49.704;9.908;2023-10-31T10:00:45;96946.63;;;15.81
27826;BMP280;15077;49.704;9.908;2023-10-31T10:03:10;96936.41;;;15.81
27826;BMP280;15077;49.704;9.908;2023-10-31T10:05:36;96935.31;;;15.83
27826;BMP280;15077;49.704;9.908;2023-10-31T10:08:06;96939.28;;;15.87
27826;BMP280;15077;49.704;9.908;2023-10-31T10:10:33;96930.69;;;15.88
27826;BMP280;15077;49.704;9.908;2023-10-31T10:12:59;96925.31;;;15.91
27826;BMP280;15077;49.704;9.908;2023-10-31T10:15:28;96930.06;;;15.96
27826;BMP280;15077;49.704;9.908;2023-10-31T10:17:53;96933.31;;;15.98
27826;BMP280;15077;49.704;9.908;2023-10-31T10:20:19;96926.31;;;16.00
27826;BMP280;15077;49.704;9.908;2023-10-31T10:22:46;96939.81;;;16.02
27826;BMP280;15077;49.704;9.908;2023-10-31T10:25:14;96944.09;;;16.01
27826;BMP280;15077;49.704;9.908;2023-10-31T10:27:41;96943.97;;;16.02
27826;BMP280;15077;49.704;9.908;2023-10-31T10:30:08;96947.34;;;16.03
27826;BMP280;15077;49.704;9.908;2023-10-31T10:32:34;96955.13;;;16.02
27826;BMP280;15077;49.704;9.908;2023-10-31T10:35:00;96944.09;;;16.01
27826;BMP280;15077;49.704;9.908;2023-10-31T10:37:27;96947.34;;;16.03
27826;BMP280;15077;49.704;9.908;2023-10-31T10:39:53;96950.59;;;16.05
27826;BMP280;15077;49.704;9.908;2023-10-31T10:42:31;96950.59;;;16.05
27826;BMP280;15077;49.704;9.908;2023-10-31T10:45:02;96937.94;;;16.03
27826;BMP280;15077;49.704;9.908;2023-10-31T10:47:31;96950.59;;;16.05
27826;BMP280;15077;49.704;9.908;2023-10-31T10:49:59;96948.69;;;16.07
27826;BMP280;15077;49.704;9.908;2023-10-31T10:52:35;96958.25;;;16.05
27826;BMP280;15077;49.704;9.908;2023-10-31T10:55:08;96946.50;;;16.02
27826;BMP280;15077;49.704;9.908;2023-10-31T11:00:27;96955.13;;;16.02
27826;BMP280;15077;49.704;9.908;2023-10-31T11:02:56;96954.31;;;16.01
27826;BMP280;15077;49.704;9.908;2023-10-31T11:05:23;96961.03;;;16.02
27826;BMP280;15077;49.704;9.908;2023-10-31T11:07:49;96964.28;;;16.04
27826;BMP280;15077;49.704;9.908;2023-10-31T11:10:19;96965.00;;;16.06
27826;BMP280;15077;49.704;9.908;2023-10-31T11:12:46;96955.44;;;16.08
27826;BMP280;15077;49.704;9.908;2023-10-31T11:15:15;96968.91;;;16.10
27826;BMP280;15077;49.704;9.908;2023-10-31T11:17:45;96970.53;;;16.11
27826;BMP280;15077;49.704;9.908;2023-10-31T11:20:14;96961.13;;;16.11
27826;BMP280;15077;49.704;9.908;2023-10-31T11:22:45;96964.38;;;16.13
27826;BMP280;15077;49.704;9.908;2023-10-31T11:25:18;96961.69;;;16.15
27826;BMP280;15077;49.704;9.908;2023-10-31T11:27:52;96976.13;;;16.16
27826;BMP280;15077;49.704;9.908;2023-10-31T11:32:53;96970.75;;;16.19
27826;BMP280;15077;49.704;9.908;2023-10-31T11:35:21;96971.44;;;16.21
27826;BMP280;15077;49.704;9.908;2023-10-31T11:37:48;96990.75;;;16.25
27826;BMP280;15077;49.704;9.908;2023-10-31T11:40:22;96975.53;;;16.23
27826;BMP280;15077;49.704;9.908;2023-10-31T11:42:58;96984.00;;;16.24
27826;BMP280;15077;49.704;9.908;2023-10-31T11:45:44;96999.78;;;16.29
27826;BMP280;15077;49.704;9.908;2023-10-31T11:48:13;97009.06;;;16.30
27826;BMP280;15077;49.704;9.908;2023-10-31T11:50:39;96996.97;;;16.32
27826;BMP280;15077;49.704;9.908;2023-10-31T11:53:10;97013.94;;;16.33
27826;BMP280;15077;49.704;9.908;2023-10-31T11:55:43;97013.81;;;16.34
27826;BMP280;15077;49.704;9.908;2023-10-31T11:58:27;97018.81;;;16.36
27826;BMP280;15077;49.704;9.908;2023-10-31T12:01:01;97028.78;;;16.39
27826;BMP280;15077;49.704;9.908;2023-10-31T12:03:27;97021.69;;;16.42
27826;BMP280;15077;49.704;9.908;2023-10-31T12:05:57;97015.53;;;16.45
27826;BMP280;15077;49.704;9.908;2023-10-31T12:08:29;97018.50;;;16.50
27826;BMP280;15077;49.704;9.908;2023-10-31T12:11:04;97014.78;;;16.53
27826;BMP280;15077;49.704;9.908;2023-10-31T12:13:30;97014.53;;;16.56
27826;BMP280;15077;49.704;9.908;2023-10-31T12:15:56;97023.72;;;16.59
27826;BMP280;15077;49.704;9.908;2023-10-31T12:18:23;97015.00;;;16.61
27826;BMP280;15077;49.704;9.908;2023-10-31T12:20:50;97026.69;;;16.64
27826;BMP280;15077;49.704;9.908;2023-10-31T12:23:17;97031.56;;;16.67
27826;BMP280;15077;49.704;9.908;2023-10-31T12:25:50;97026.06;;;16.71
27826;BMP280;15077;49.704;9.908;2023-10-31T12:28:19;97030.81;;;16.76
27826;BMP280;15077;49.704;9.908;2023-10-31T12:30:47;97033.00;;;16.80
27826;BMP280;15077;49.704;9.908;2023-10-31T12:33:13;97034.38;;;16.84
27826;BMP280;15077;49.704;9.908;2023-10-31T12:35:39;97034.38;;;16.84
27826;BMP280;15077;49.704;9.908;2023-10-31T12:38:05;97040.06;;;16.88
27826;BMP280;15077;49.704;9.908;2023-10-31T12:40:31;97036.44;;;16.90
27826;BMP280;15077;49.704;9.908;2023-10-31T12:42:57;97035.28;;;16.94
27826;BMP280;15077;49.704;9.908;2023-10-31T12:45:24;97040.13;;;16.97
27826;BMP280;15077;49.704;9.908;2023-10-31T12:48:06;97040.13;;;16.97
27826;BMP280;15077;49.704;9.908;2023-10-31T12:50:33;97039.31;;;16.97
27826;BMP280;15077;49.704;9.908;2023-10-31T12:52:59;97044.41;;;16.97
27826;BMP280;15077;49.704;9.908;2023-10-31T12:55:28;97041.72;;;16.98
27826;BMP280;15077;49.704;9.908;2023-10-31T12:57:54;97048.38;;;17.00
27826;BMP280;15077;49.704;9.908;2023-10-31T13:00:22;97040.69;;;17.00
27826;BMP280;15077;49.704;9.908;2023-10-31T13:02:52;97043.91;;;17.02
27826;BMP280;15077;49.704;9.908;2023-10-31T13:05:25;97041.94;;;17.06
27826;BMP280;15077;49.704;9.908;2023-10-31T13:07:54;97038.19;;;17.10
27826;BMP280;15077;49.704;9.908;2023-10-31T13:10:25;97047.47;;;17.11
27826;BMP280;15077;49.704;9.908;2023-10-31T13:12:52;97050.75;;;17.13
27826;BMP280;15077;49.704;9.908;2023-10-31T13:15:20;97052.34;;;17.14
27826;BMP280;15077;49.704;9.908;2023-10-31T13:17:46;97055.63;;;17.16
27826;BMP280;15077;49.704;9.908;2023-10-31T13:20:13;97057.22;;;17.17
27826;BMP280;15077;49.704;9.908;2023-10-31T13:22:40;97057.22;;;17.17
27826;BMP280;15077;49.704;9.908;2023-10-31T13:25:08;97063.28;;;17.16
27826;BMP280;15077;49.704;9.908;2023-10-31T13:27:37;97064.22;;;17.15
27826;BMP280;15077;49.704;9.908;2023-10-31T13:30:04;97065.84;;;17.16
27826;BMP280;15077;49.704;9.908;2023-10-31T13:32:30;97064.91;;;17.17
27826;BMP280;15077;49.704;9.908;2023-10-31T13:34:56;97060.03;;;17.14
27826;BMP280;15077;49.704;9.908;2023-10-31T13:37:22;97063.41;;;17.14
27826;BMP280;15077;49.704;9.908;2023-10-31T13:39:47;97064.22;;;17.15
27826;BMP280;15077;49.704;9.908;2023-10-31T13:42:13;97062.59;;;17.14
27826;BMP280;15077;49.704;9.908;2023-10-31T13:44:42;97069.59;;;17.12
27826;BMP280;15077;49.704;9.908;2023-10-31T13:47:09;97074.72;;;17.12
27826;BMP280;15077;49.704;9.908;2023-10-31T13:49:35;97067.03;;;17.12
27826;BMP280;15077;49.704;9.908;2023-10-31T13:52:00;97073.78;;;17.13
27826;BMP280;15077;49.704;9.908;2023-10-31T13:54:26;97072.81;;;17.14
27826;BMP280;15077;49.704;9.908;2023-10-31T13:56:52;97070.97;;;17.16
27826;BMP280;15077;49.704;9.908;2023-10-31T13:59:18;97074.22;;;17.18
27826;BMP280;15077;49.704;9.908;2023-10-31T14:01:44;97074.22;;;17.18
27826;BMP280;15077;49.704;9.908;2023-10-31T14:04:13;97074.34;;;17.16
27826;BMP280;15077;49.704;9.908;2023-10-31T14:06:40;97076.91;;;17.16
27826;BMP280;15077;49.704;9.908;2023-10-31T14:09:08;97076.09;;;17.16
27826;BMP280;15077;49.704;9.908;2023-10-31T14:11:34;97088.06;;;17.15